Terminal Aerodrome Forecast
Issued by NWS

Home | Current Version | Previous Version | Text Only | Print | Product List | Glossary On
Versions: 1 2 3 4 5 6 7 8 9 10 11 12 13 14 15 16 17 18 19
635
FTAK31 PAJN 301744
TAFAPG
TAF
PAPG 301744Z 3018/3118 VRB04KT P6SM VCSH FEW002 SCT020 OVC050
      WS020/15025KT
      TEMPO 3018/3020 00000KT 6SM BR SCT002 BKN020 OVC030
     FM302100 08005KT P6SM FEW020 OVC050
     FM310100 12012KT P6SM VCSH SCT025 OVC040 WS020/15035KT
     FM310600 12012G20KT 4SM -RA BR BKN020 OVC030 WS020/15040KT
      AMD LTD TO CLD VIS AND WIND 3106/3115=

USA.gov is the U.S. government's official web portal to all federal, state and local government web resources and services.